Time;durP1;ratioP1;P1;durP2;ratioP2;P2;SDS_P1;SDS_P2;PMS_P1;PMS_P2;Temp;Humidity;BMP_temperature;BMP_pressure;BME280_temperature;BME280_humidity;BME280_pressure;Samples;Min_cycle;Max_cycle;Signal;HPM_P1;HPM_P2
2021/09/03 00:02:49;;;;;;;7.10;2.80;;;;;;;10.54;82.38;101269.51;21180669;82;99642;-83
2021/09/03 00:32:50;;;;;;;6.60;2.50;;;;;;;10.21;83.46;101252.56;21194402;80;99480;-83
2021/09/03 01:02:51;;;;;;;6.90;2.42;;;;;;;9.91;84.16;101216.95;21174223;82;98987;-83
2021/09/03 01:32:52;;;;;;;8.07;3.33;;;;;;;9.67;85.24;101182.19;21294534;81;98859;-83
2021/09/03 02:02:53;;;;;;;8.65;3.52;;;;;;;9.44;86.56;101176.23;21330811;81;98984;-83
2021/09/03 02:32:54;;;;;;;11.00;3.60;;;;;;;9.25;86.49;101145.31;21196375;81;98860;-83
2021/09/03 03:02:56;;;;;;;10.98;4.53;;;;;;;9.05;87.16;101109.83;21102454;82;99410;-86
2021/09/03 03:32:57;;;;;;;10.18;4.17;;;;;;;8.88;87.80;101082.09;21254353;81;99411;-84
2021/09/03 04:02:57;;;;;;;11.48;4.75;;;;;;;8.73;88.90;101054.60;21355273;81;107581;-84
2021/09/03 04:32:59;;;;;;;10.50;5.20;;;;;;;8.59;89.11;101033.05;21236606;81;99655;-85
2021/09/03 05:02:59;;;;;;;24.07;12.03;;;;;;;8.64;90.08;101002.61;21161847;82;101131;-83
2021/09/03 05:33:00;;;;;;;23.63;14.53;;;;;;;9.43;94.96;101003.72;21273055;81;99962;-84
2021/09/03 06:03:01;;;;;;;21.07;11.68;;;;;;;11.10;99.71;100969.98;21349761;81;99654;-81
2021/09/03 06:33:02;;;;;;;22.48;11.68;;;;;;;12.31;97.91;100961.20;21367491;81;99848;-82
2021/09/03 07:03:03;;;;;;;24.67;14.98;;;;;;;13.49;95.57;100948.99;21355509;81;100093;-83
2021/09/03 07:33:04;;;;;;;26.50;14.50;;;;;;;14.40;94.43;100951.72;21343193;81;108964;-85
2021/09/03 08:03:05;;;;;;;25.37;11.97;;;;;;;15.69;90.95;100958.06;21317287;81;99825;-85
2021/09/03 08:33:06;;;;;;;17.67;10.68;;;;;;;17.09;86.43;100922.76;21366281;81;99632;-88
2021/09/03 09:03:13;;;;;;;21.62;10.50;;;;;;;18.22;81.31;100903.76;21318988;81;99571;-87
2021/09/03 09:33:19;;;;;;;;;;;;;;;19.63;75.87;100882.25;21226613;81;99771;-83
2021/09/03 10:03:24;;;;;;;17.15;8.33;;;;;;;21.57;69.49;100839.67;21062043;82;85685;-93
2021/09/03 10:33:31;;;;;;;14.63;7.87;;;;;;;23.70;65.37;100810.28;21213282;81;99504;-83
2021/09/03 11:03:52;;;;;;;15.58;7.97;;;;;;;25.35;59.66;100778.51;21330131;81;99634;-83
2021/09/03 11:33:55;;;;;;;15.65;7.47;;;;;;;26.03;55.57;100754.45;21336721;81;99792;-84
2021/09/03 12:03:58;;;;;;;12.03;6.80;;;;;;;26.52;52.56;100726.05;21353279;81;99667;-82
2021/09/03 12:34:02;;;;;;;11.43;6.03;;;;;;;26.29;49.86;100711.89;21405857;81;99441;-85
2021/09/03 13:04:16;;;;;;;11.55;6.45;;;;;;;26.10;52.01;100687.84;21464103;81;99914;-82
2021/09/03 13:34:17;;;;;;;12.40;6.58;;;;;;;25.62;49.42;100649.44;21318449;81;99978;-83
2021/09/03 14:04:18;;;;;;;11.70;6.22;;;;;;;25.15;49.02;100638.70;21077824;81;99782;-84
2021/09/03 14:34:19;;;;;;;13.63;6.70;;;;;;;24.56;51.07;100623.80;21064464;82;99609;-83
2021/09/03 15:04:20;;;;;;;12.18;6.92;;;;;;;24.16;51.00;100613.27;21154090;82;286439;-82
2021/09/03 15:34:21;;;;;;;11.85;7.05;;;;;;;23.41;50.85;100592.79;21210352;81;99676;-89
2021/09/03 16:04:22;;;;;;;15.70;7.40;;;;;;;22.83;53.62;100576.95;21327077;81;99501;-85
2021/09/03 16:34:23;;;;;;;12.35;6.40;;;;;;;22.30;56.25;100568.98;21247891;81;99426;-85
2021/09/03 17:04:24;;;;;;;13.93;7.70;;;;;;;21.86;56.60;100560.88;21164915;82;99658;-86
2021/09/03 17:34:25;;;;;;;12.60;7.87;;;;;;;21.09;58.12;100575.25;21087213;81;99863;-86
2021/09/03 18:04:26;;;;;;;18.67;9.90;;;;;;;20.14;59.90;100584.66;20988670;83;99901;-84
2021/09/03 18:34:27;;;;;;;16.50;9.43;;;;;;;18.74;63.76;100620.63;21064668;82;99506;-87
2021/09/03 19:04:28;;;;;;;17.67;9.73;;;;;;;17.65;66.75;100662.02;21142911;82;99809;-88
2021/09/03 19:34:29;;;;;;;20.88;10.88;;;;;;;16.75;69.49;100680.56;21159814;82;99701;-87
2021/09/03 20:04:30;;;;;;;;;;;;;;;15.87;72.31;100690.19;21189969;82;99609;-87
2021/09/03 20:34:30;;;;;;;27.40;13.97;;;;;;;15.10;76.28;100709.31;21171175;82;85515;-87
2021/09/03 21:04:31;;;;;;;22.60;12.80;;;;;;;14.21;76.99;100709.81;21133212;82;99938;-87
2021/09/03 21:34:33;;;;;;;22.00;11.80;;;;;;;13.45;79.30;100715.33;21132526;81;99623;-86
2021/09/03 22:04:35;;;;;;;21.00;11.70;;;;;;;12.83;80.18;100720.70;21111465;82;99581;-86
2021/09/03 22:34:36;;;;;;;22.83;13.73;;;;;;;12.20;81.75;100729.84;21196845;81;99929;-89
2021/09/03 23:04:37;;;;;;;18.23;10.70;;;;;;;11.75;83.34;100736.27;21345224;81;99817;-90
2021/09/03 23:34:38;;;;;;;19.03;9.63;;;;;;;11.32;84.52;100725.88;21340641;81;99854;-90
